^^
Saratoga-Weather Station Historical Data
Daily Summary for April 16, 2021 Units:  Metric    English   Both
Daily Weekly Monthly Yearly Custom
  High: Low: Average:
Temperature: 13.2 °C 5.9 °C 9.1 °C
Dew Point: 10.1 °C 5.3 °C 7.6 °C
Humidity: 97% 75% 91%
Wind Speed: 7.9km/h 0km/h 0.8km/h
Wind Gust: 11.3km/h - -
Wind- - SSW
Pressure: 1021.7 hPa 1019.3 hPa -
Precipitation: 0.0 mm    
Historical Graphs
 
 
Tabular Data for April 16, 2021
Time Temperature Dew Point Pressure Wind Wind Speed Wind Gust Humidity Rainfall Rate (Hourly) solar
00:02 11 °C 9.3 °C 1020.3 hPa Calm   4.8 km/h 89% 0.0 mm 0 W/m2
00:07 10.8 °C 9.1 °C 1020.3 hPa Calm   1.6 km/h 89% 0.0 mm 0 W/m2
00:12 10.8 °C 9.2 °C 1020.7 hPa Calm   4.8 km/h 90% 0.0 mm 0 W/m2
00:17 10.7 °C 9.1 °C 1020.7 hPa ESE 1.4 km/h 3.2 km/h 90% 0.0 mm 0 W/m2
00:22 10.7 °C 9.1 °C 1020.7 hPa Calm     90% 0.0 mm 0 W/m2
00:27 10.7 °C 9.1 °C 1020.3 hPa Calm   1.6 km/h 90% 0.0 mm 0 W/m2
00:32 10.6 °C 9 °C 1020.3 hPa Calm   1.6 km/h 90% 0.0 mm 0 W/m2
00:37 10.5 °C 8.9 °C 1020.3 hPa Calm   3.2 km/h 90% 0.0 mm 0 W/m2
00:42 10.4 °C 9 °C 1020.7 hPa Calm   1.6 km/h 91% 0.0 mm 0 W/m2
00:47 10.4 °C 9 °C 1020.7 hPa Calm   3.2 km/h 91% 0.0 mm 0 W/m2
00:52 10.3 °C 8.9 °C 1020.3 hPa NNW 1.4 km/h 3.2 km/h 91% 0.0 mm 0 W/m2
00:57 10.3 °C 8.9 °C 1020.3 hPa Calm   3.2 km/h 91% 0.0 mm 0 W/m2
01:02 10.3 °C 8.9 °C 1020.7 hPa NE 1.4 km/h 1.6 km/h 91% 0.0 mm 0 W/m2
01:07 10.2 °C 8.8 °C 1020.7 hPa NE 1.4 km/h 3.2 km/h 91% 0.0 mm 0 W/m2
01:12 10 °C 8.6 °C 1020.3 hPa Calm   1.6 km/h 91% 0.0 mm 0 W/m2
01:17 9.9 °C 8.7 °C 1020.3 hPa East 3.2 km/h 4.8 km/h 92% 0.0 mm 0 W/m2
01:22 9.9 °C 8.7 °C 1020.3 hPa Calm   1.6 km/h 92% 0.0 mm 0 W/m2
01:27 9.8 °C 8.6 °C 1020.3 hPa Calm   3.2 km/h 92% 0.0 mm 0 W/m2
01:32 9.8 °C 8.6 °C 1020.3 hPa Calm   3.2 km/h 92% 0.0 mm 0 W/m2
01:37 9.8 °C 8.6 °C 1020.3 hPa Calm   3.2 km/h 92% 0.0 mm 0 W/m2
01:42 9.7 °C 8.5 °C 1020.3 hPa SSW 1.4 km/h 1.6 km/h 92% 0.0 mm 0 W/m2
01:47 9.7 °C 8.5 °C 1020.3 hPa Calm   1.6 km/h 92% 0.0 mm 0 W/m2
01:52 9.5 °C 8.3 °C 1020.7 hPa Calm     92% 0.0 mm 0 W/m2
01:57 9.3 °C 8.1 °C 1020.7 hPa Calm     92% 0.0 mm 0 W/m2
02:02 9.2 °C 8.1 °C 1020.7 hPa NW 3.2 km/h 3.2 km/h 93% 0.0 mm 0 W/m2
02:07 9.2 °C 8.1 °C 1020.7 hPa WNW 1.4 km/h 1.6 km/h 93% 0.0 mm 0 W/m2
02:12 9.2 °C 8.1 °C 1020.7 hPa NW 1.4 km/h 4.8 km/h 93% 0.0 mm 0 W/m2
02:17 9.2 °C 8.1 °C 1020.7 hPa NE 1.4 km/h 3.2 km/h 93% 0.0 mm 0 W/m2
02:22 9.2 °C 8.3 °C 1020.7 hPa West 3.2 km/h 3.2 km/h 94% 0.0 mm 0 W/m2
02:27 9.2 °C 8.3 °C 1020.7 hPa Calm     94% 0.0 mm 0 W/m2
02:32 9.2 °C 8.3 °C 1020.7 hPa Calm     94% 0.0 mm 0 W/m2
02:37 9.1 °C 8 °C 1020.7 hPa Calm     93% 0.0 mm 0 W/m2
02:42 8.9 °C 7.8 °C 1020.7 hPa Calm     93% 0.0 mm 0 W/m2
02:47 8.7 °C 7.6 °C 1020.7 hPa Calm   3.2 km/h 93% 0.0 mm 0 W/m2
02:52 8.6 °C 7.5 °C 1020.7 hPa East 1.4 km/h 3.2 km/h 93% 0.0 mm 0 W/m2
02:57 8.5 °C 7.4 °C 1020.7 hPa Calm   1.6 km/h 93% 0.0 mm 0 W/m2
03:03 8.4 °C 7.5 °C 1020.7 hPa Calm   3.2 km/h 94% 0.0 mm 0 W/m2
03:08 8.4 °C 7.5 °C 1020.7 hPa Calm     94% 0.0 mm 0 W/m2
03:13 8.4 °C 7.5 °C 1020.7 hPa Calm   3.2 km/h 94% 0.0 mm 0 W/m2
03:18 8.4 °C 7.5 °C 1020.7 hPa Calm   1.6 km/h 94% 0.0 mm 0 W/m2
03:23 8.4 °C 7.5 °C 1020.7 hPa Calm   3.2 km/h 94% 0.0 mm 0 W/m2
03:28 8.3 °C 7.4 °C 1020.7 hPa Calm     94% 0.0 mm 0 W/m2
03:33 8.2 °C 7.3 °C 1020.7 hPa Calm     94% 0.0 mm 0 W/m2
03:38 8 °C 7.1 °C 1020.3 hPa Calm     94% 0.0 mm 0 W/m2
03:43 7.9 °C 7 °C 1020.3 hPa Calm     94% 0.0 mm 0 W/m2
03:48 7.9 °C 7 °C 1020.3 hPa ENE 3.2 km/h 4.8 km/h 94% 0.0 mm 0 W/m2
03:53 7.9 °C 7.1 °C 1020.3 hPa Calm   1.6 km/h 95% 0.0 mm 0 W/m2
03:58 7.9 °C 7.1 °C 1020.3 hPa East 3.2 km/h 4.8 km/h 95% 0.0 mm 0 W/m2
04:03 7.9 °C 7.1 °C 1020.3 hPa East 1.4 km/h 3.2 km/h 95% 0.0 mm 0 W/m2
04:08 7.9 °C 7.1 °C 1020.3 hPa East 1.4 km/h 4.8 km/h 95% 0.0 mm 0 W/m2
04:13 7.8 °C 7 °C 1020.3 hPa East 1.4 km/h 1.6 km/h 95% 0.0 mm 0 W/m2
04:18 7.7 °C 6.9 °C 1020.3 hPa East 1.4 km/h 4.8 km/h 95% 0.0 mm 0 W/m2
04:23 7.7 °C 6.9 °C 1020.3 hPa Calm   1.6 km/h 95% 0.0 mm 0 W/m2
04:28 7.6 °C 6.9 °C 1020.3 hPa Calm     95% 0.0 mm 0 W/m2
04:33 7.6 °C 6.9 °C 1020.3 hPa Calm   1.6 km/h 95% 0.0 mm 0 W/m2
04:38 7.5 °C 6.8 °C 1020.3 hPa East 1.4 km/h 3.2 km/h 95% 0.0 mm 0 W/m2
04:43 7.5 °C 6.8 °C 1020.3 hPa Calm   1.6 km/h 95% 0.0 mm 0 W/m2
04:48 7.5 °C 6.8 °C 1020.3 hPa NE 1.4 km/h 3.2 km/h 95% 0.0 mm 0 W/m2
04:53 7.4 °C 6.7 °C 1020.3 hPa Calm   1.6 km/h 95% 0.0 mm 0 W/m2
04:58 7.4 °C 6.7 °C 1020.3 hPa ENE 1.4 km/h 1.6 km/h 95% 0.0 mm 0 W/m2
05:03 7.4 °C 6.7 °C 1020.3 hPa East 1.4 km/h 3.2 km/h 95% 0.0 mm 0 W/m2
05:08 7.3 °C 6.6 °C 1020.3 hPa Calm   1.6 km/h 95% 0.0 mm 0 W/m2
05:13 7.3 °C 6.6 °C 1020.3 hPa NE 1.4 km/h 3.2 km/h 95% 0.0 mm 0 W/m2
05:18 7.2 °C 6.5 °C 1020.3 hPa East 1.4 km/h 3.2 km/h 95% 0.0 mm 0 W/m2
05:23 7.2 °C 6.5 °C 1020.3 hPa Calm   3.2 km/h 95% 0.0 mm 0 W/m2
05:28 7.1 °C 6.5 °C 1020.3 hPa SE 3.2 km/h 4.8 km/h 96% 0.0 mm 0 W/m2
05:33 7 °C 6.3 °C 1020.3 hPa ESE 1.4 km/h 4.8 km/h 95% 0.0 mm 0 W/m2
05:38 7 °C 6.3 °C 1020.3 hPa SE 1.4 km/h 4.8 km/h 95% 0.0 mm 0 W/m2
05:43 6.9 °C 6.2 °C 1020.3 hPa Calm   4.8 km/h 95% 0.0 mm 0 W/m2
05:48 6.9 °C 6.3 °C 1020.7 hPa East 3.2 km/h 3.2 km/h 96% 0.0 mm 0 W/m2
05:53 6.8 °C 6.2 °C 1020.7 hPa East 1.4 km/h 4.8 km/h 96% 0.0 mm 0 W/m2
05:58 6.8 °C 6.2 °C 1020.3 hPa Calm   6.4 km/h 96% 0.0 mm 0 W/m2
06:03 6.8 °C 6.2 °C 1020.3 hPa ENE 1.4 km/h 4.8 km/h 96% 0.0 mm 0 W/m2
06:08 6.7 °C 6.1 °C 1020.3 hPa Calm   6.4 km/h 96% 0.0 mm 0 W/m2
06:13 6.7 °C 6.1 °C 1020.3 hPa Calm   1.6 km/h 96% 0.0 mm 0 W/m2
06:18 6.7 °C 6.1 °C 1020.7 hPa Calm   4.8 km/h 96% 0.0 mm 0 W/m2
06:23 6.7 °C 6.1 °C 1020.3 hPa East 1.4 km/h 3.2 km/h 96% 0.0 mm 0 W/m2
06:28 6.7 °C 6.1 °C 1020.3 hPa Calm   4.8 km/h 96% 0.0 mm 0 W/m2
06:33 6.7 °C 6.1 °C 1020.3 hPa NNW 1.4 km/h 3.2 km/h 96% 0.0 mm 0 W/m2
06:38 6.7 °C 6.1 °C 1020.3 hPa NNW 1.4 km/h 3.2 km/h 96% 0.0 mm 0 W/m2
06:43 6.7 °C 6.1 °C 1020.3 hPa North 1.4 km/h 4.8 km/h 96% 0.0 mm 0 W/m2
06:48 6.6 °C 6 °C 1020.3 hPa Calm   1.6 km/h 96% 0.0 mm 0 W/m2
06:53 6.6 °C 6 °C 1020.7 hPa East 3.2 km/h 4.8 km/h 96% 0.0 mm 0 W/m2
06:58 6.5 °C 5.9 °C 1020.7 hPa Calm   3.2 km/h 96% 0.0 mm 0 W/m2
07:03 6.5 °C 5.9 °C 1020.7 hPa Calm   4.8 km/h 96% 0.0 mm 0 W/m2
07:08 6.4 °C 5.8 °C 1020.7 hPa Calm   1.6 km/h 96% 0.0 mm 0 W/m2
07:13 6.4 °C 5.8 °C 1020.7 hPa Calm   1.6 km/h 96% 0.0 mm 0 W/m2
07:18 6.3 °C 5.7 °C 1020.3 hPa ENE 1.4 km/h 3.2 km/h 96% 0.0 mm 0 W/m2
07:23 6.3 °C 5.7 °C 1020.7 hPa ENE 1.4 km/h 1.6 km/h 96% 0.0 mm 0 W/m2
07:28 6.3 °C 5.7 °C 1020.7 hPa NW 1.4 km/h 3.2 km/h 96% 0.0 mm 0 W/m2
07:33 6.3 °C 5.7 °C 1020.7 hPa NW 3.2 km/h 3.2 km/h 96% 0.0 mm 0 W/m2
07:38 6.3 °C 5.7 °C 1020.7 hPa Calm     96% 0.0 mm 0 W/m2
07:43 6.3 °C 5.7 °C 1020.7 hPa Calm     96% 0.0 mm 0 W/m2
07:48 6.3 °C 5.7 °C 1020.7 hPa Calm     96% 0.0 mm 0 W/m2
07:53 6.2 °C 5.6 °C 1020.7 hPa ENE 3.2 km/h 3.2 km/h 96% 0.0 mm 0 W/m2
07:58 6.2 °C 5.6 °C 1020.7 hPa Calm   3.2 km/h 96% 0.0 mm 0 W/m2
08:03 6.2 °C 5.6 °C 1020.7 hPa North 3.2 km/h 4.8 km/h 96% 0.0 mm 0 W/m2
08:08 6.1 °C 5.5 °C 1020.7 hPa Calm   1.6 km/h 96% 0.0 mm 0 W/m2
08:13 6.1 °C 5.5 °C 1020.7 hPa Calm     96% 0.0 mm 5 W/m2
08:18 6.1 °C 5.5 °C 1020.7 hPa Calm   4.8 km/h 96% 0.0 mm 5 W/m2
08:23 6.1 °C 5.5 °C 1020.7 hPa Calm   4.8 km/h 96% 0.0 mm 5 W/m2
08:28 6.1 °C 5.5 °C 1020.7 hPa Calm   1.6 km/h 96% 0.0 mm 9 W/m2
08:33 6.1 °C 5.5 °C 1021.0 hPa Calm   4.8 km/h 96% 0.0 mm 14 W/m2
08:38 6.1 °C 5.5 °C 1021.0 hPa North 1.4 km/h 3.2 km/h 96% 0.0 mm 18 W/m2
08:43 6 °C 5.4 °C 1021.0 hPa Calm   3.2 km/h 96% 0.0 mm 19 W/m2
08:48 6.1 °C 5.5 °C 1021.0 hPa Calm   3.2 km/h 96% 0.0 mm 25 W/m2
08:53 6 °C 5.4 °C 1021.0 hPa NNW 1.4 km/h 1.6 km/h 96% 0.0 mm 30 W/m2
08:59 6 °C 5.4 °C 1021.0 hPa Calm   1.6 km/h 96% 0.0 mm 32 W/m2
09:04 6 °C 5.4 °C 1021.0 hPa Calm     96% 0.0 mm 35 W/m2
09:09 6 °C 5.4 °C 1021.3 hPa Calm     96% 0.0 mm 39 W/m2
09:14 5.9 °C 5.3 °C 1021.3 hPa Calm     96% 0.0 mm 49 W/m2
09:19 6 °C 5.4 °C 1021.3 hPa Calm     96% 0.0 mm 60 W/m2
09:24 6.1 °C 5.7 °C 1021.3 hPa Calm   3.2 km/h 97% 0.0 mm 56 W/m2
09:29 6.1 °C 5.7 °C 1021.3 hPa Calm   4.8 km/h 97% 0.0 mm 58 W/m2
09:34 6.1 °C 5.5 °C 1021.3 hPa Calm   1.6 km/h 96% 0.0 mm 67 W/m2
09:39 6 °C 5.4 °C 1021.3 hPa SW 1.4 km/h 1.6 km/h 96% 0.0 mm 65 W/m2
09:44 6.1 °C 5.7 °C 1021.3 hPa NNW 1.4 km/h 3.2 km/h 97% 0.0 mm 60 W/m2
09:49 6.1 °C 5.7 °C 1021.3 hPa NE 1.4 km/h 1.6 km/h 97% 0.0 mm 63 W/m2
09:54 6.1 °C 5.7 °C 1021.3 hPa Calm   1.6 km/h 97% 0.0 mm 72 W/m2
09:59 6.1 °C 5.7 °C 1021.3 hPa Calm   3.2 km/h 97% 0.0 mm 62 W/m2
10:04 6.1 °C 5.7 °C 1021.3 hPa Calm   4.8 km/h 97% 0.0 mm 60 W/m2
10:09 6 °C 5.6 °C 1021.3 hPa Calm   3.2 km/h 97% 0.0 mm 69 W/m2
10:14 6.1 °C 5.7 °C 1021.3 hPa Calm   1.6 km/h 97% 0.0 mm 76 W/m2
10:19 6.1 °C 5.7 °C 1021.7 hPa Calm     97% 0.0 mm 90 W/m2
10:24 6.1 °C 5.7 °C 1021.3 hPa Calm   1.6 km/h 97% 0.0 mm 84 W/m2
10:29 6.1 °C 5.7 °C 1021.7 hPa Calm   3.2 km/h 97% 0.0 mm 95 W/m2
10:34 6.2 °C 5.8 °C 1021.3 hPa Calm   1.6 km/h 97% 0.0 mm 105 W/m2
10:39 6.2 °C 5.8 °C 1021.3 hPa NE 3.2 km/h 4.8 km/h 97% 0.0 mm 114 W/m2
10:44 6.2 °C 5.8 °C 1021.3 hPa Calm   4.8 km/h 97% 0.0 mm 142 W/m2
10:49 6.3 °C 5.9 °C 1021.3 hPa Calm   1.6 km/h 97% 0.0 mm 135 W/m2
10:54 6.4 °C 6 °C 1021.3 hPa Calm   3.2 km/h 97% 0.0 mm 149 W/m2
10:59 6.5 °C 6.1 °C 1021.3 hPa NW 1.4 km/h 3.2 km/h 97% 0.0 mm 146 W/m2
11:04 6.6 °C 6.2 °C 1021.3 hPa Calm   1.6 km/h 97% 0.0 mm 134 W/m2
11:09 6.7 °C 6.3 °C 1021.3 hPa NNW 3.2 km/h 3.2 km/h 97% 0.0 mm 137 W/m2
11:14 6.8 °C 6.4 °C 1021.3 hPa Calm   4.8 km/h 97% 0.0 mm 128 W/m2
11:19 6.7 °C 6.3 °C 1021.3 hPa Calm   1.6 km/h 97% 0.0 mm 153 W/m2
11:24 6.8 °C 6.4 °C 1021.3 hPa Calm   4.8 km/h 97% 0.0 mm 162 W/m2
11:29 6.8 °C 6.4 °C 1021.3 hPa Calm   3.2 km/h 97% 0.0 mm 160 W/m2
11:34 6.9 °C 6.5 °C 1021.3 hPa ENE 1.4 km/h 3.2 km/h 97% 0.0 mm 167 W/m2
11:39 7 °C 6.6 °C 1021.3 hPa NNW 1.4 km/h 1.6 km/h 97% 0.0 mm 148 W/m2
11:44 7.1 °C 6.7 °C 1021.3 hPa Calm     97% 0.0 mm 163 W/m2
11:49 7.2 °C 6.8 °C 1021.3 hPa NW 1.4 km/h 4.8 km/h 97% 0.0 mm 185 W/m2
11:54 7.3 °C 6.9 °C 1021.3 hPa NW 3.2 km/h 3.2 km/h 97% 0.0 mm 248 W/m2
11:59 7.4 °C 7 °C 1021.3 hPa NW 1.4 km/h 4.8 km/h 97% 0.0 mm 308 W/m2
12:04 7.6 °C 7.2 °C 1021.3 hPa NNW 1.4 km/h 3.2 km/h 97% 0.0 mm 274 W/m2
12:09 7.7 °C 7.3 °C 1021.3 hPa WSW 1.4 km/h 4.8 km/h 97% 0.0 mm 230 W/m2
12:14 7.9 °C 7.5 °C 1021.3 hPa NW 1.4 km/h 3.2 km/h 97% 0.0 mm 230 W/m2
12:19 8.2 °C 7.8 °C 1021.3 hPa Calm   1.6 km/h 97% 0.0 mm 213 W/m2
12:24 8.4 °C 8 °C 1021.3 hPa East 3.2 km/h 3.2 km/h 97% 0.0 mm 114 W/m2
12:29 8.7 °C 8.1 °C 1021.3 hPa Calm   3.2 km/h 96% 0.0 mm 134 W/m2
12:34 8.9 °C 8.3 °C 1021.3 hPa WSW 7.9 km/h 11.3 km/h 96% 0.0 mm 225 W/m2
12:39 9.1 °C 8.3 °C 1021.3 hPa West 3.2 km/h 4.8 km/h 95% 0.0 mm 188 W/m2
12:44 9.2 °C 8.3 °C 1021.3 hPa West 1.4 km/h 4.8 km/h 94% 0.0 mm 185 W/m2
12:49 9.3 °C 8.2 °C 1021.0 hPa Calm     93% 0.0 mm 309 W/m2
12:54 9.6 °C 8.5 °C 1021.0 hPa WSW 1.4 km/h 4.8 km/h 93% 0.0 mm 418 W/m2
12:59 9.8 °C 8.6 °C 1021.0 hPa West 3.2 km/h 4.8 km/h 92% 0.0 mm 519 W/m2
13:04 10.2 °C 8.8 °C 1021.0 hPa North 3.2 km/h 4.8 km/h 91% 0.0 mm 473 W/m2
13:09 10.4 °C 8.7 °C 1021.0 hPa WSW 1.4 km/h 6.4 km/h 89% 0.0 mm 123 W/m2
13:14 10.6 °C 8.7 °C 1021.0 hPa West 3.2 km/h 4.8 km/h 88% 0.0 mm 95 W/m2
13:19 10.6 °C 8.7 °C 1020.7 hPa Calm   6.4 km/h 88% 0.0 mm 93 W/m2
13:24 10.7 °C 8.6 °C 1020.7 hPa East 3.2 km/h 4.8 km/h 87% 0.0 mm 70 W/m2
13:29 10.8 °C 8.6 °C 1020.7 hPa SW 1.4 km/h 3.2 km/h 86% 0.0 mm 79 W/m2
13:34 10.8 °C 8.6 °C 1020.7 hPa Calm   4.8 km/h 86% 0.0 mm 311 W/m2
13:39 10.9 °C 8.5 °C 1020.7 hPa WSW 1.4 km/h 3.2 km/h 85% 0.0 mm 146 W/m2
13:44 11.2 °C 8.8 °C 1020.7 hPa Calm   1.6 km/h 85% 0.0 mm 95 W/m2
13:49 11.3 °C 8.7 °C 1020.3 hPa East 1.4 km/h 3.2 km/h 84% 0.0 mm 91 W/m2
13:54 11.5 °C 9.1 °C 1020.3 hPa Calm   4.8 km/h 85% 0.0 mm 123 W/m2
13:59 11.6 °C 8.8 °C 1020.3 hPa NNW 1.4 km/h 3.2 km/h 83% 0.0 mm 120 W/m2
14:04 11.8 °C 9 °C 1020.3 hPa East 3.2 km/h 6.4 km/h 83% 0.0 mm 91 W/m2
14:09 11.8 °C 8.8 °C 1020.0 hPa East 1.4 km/h 4.8 km/h 82% 0.0 mm 79 W/m2
14:14 11.9 °C 8.9 °C 1020.0 hPa NNE 1.4 km/h 6.4 km/h 82% 0.0 mm 93 W/m2
14:19 12.1 °C 8.9 °C 1020.0 hPa Calm   1.6 km/h 81% 0.0 mm 102 W/m2
14:24 12.2 °C 8.9 °C 1020.0 hPa NNE 3.2 km/h 3.2 km/h 80% 0.0 mm 105 W/m2
14:29 12.2 °C 9 °C 1020.0 hPa Calm     81% 0.0 mm 135 W/m2
14:34 12.2 °C 9.2 °C 1020.0 hPa Calm     82% 0.0 mm 172 W/m2
14:39 12.3 °C 9.1 °C 1020.0 hPa NNE 1.4 km/h 1.6 km/h 81% 0.0 mm 120 W/m2
14:44 12.3 °C 8.9 °C 1020.0 hPa Calm   3.2 km/h 80% 0.0 mm 167 W/m2
14:49 12.4 °C 8.9 °C 1020.0 hPa NE 1.4 km/h 4.8 km/h 79% 0.0 mm 172 W/m2
14:54 12.6 °C 9.1 °C 1020.0 hPa NE 1.4 km/h 3.2 km/h 79% 0.0 mm 151 W/m2
14:59 12.7 °C 9 °C 1019.6 hPa Calm   4.8 km/h 78% 0.0 mm 176 W/m2
15:04 12.8 °C 9.1 °C 1019.6 hPa Calm   4.8 km/h 78% 0.0 mm 176 W/m2
15:09 12.9 °C 9 °C 1019.6 hPa NE 1.4 km/h 3.2 km/h 77% 0.0 mm 185 W/m2
15:14 12.9 °C 8.8 °C 1019.6 hPa Calm     76% 0.0 mm 171 W/m2
15:19 13.1 °C 9.4 °C 1019.6 hPa Calm   1.6 km/h 78% 0.0 mm 171 W/m2
15:24 13.1 °C 9 °C 1019.6 hPa ESE 3.2 km/h 6.4 km/h 76% 0.0 mm 174 W/m2
15:29 13.2 °C 9.1 °C 1019.6 hPa Calm   3.2 km/h 76% 0.0 mm 128 W/m2
15:34 13.2 °C 9.1 °C 1019.6 hPa East 3.2 km/h 3.2 km/h 76% 0.0 mm 95 W/m2
15:39 13.1 °C 8.8 °C 1019.6 hPa Calm   1.6 km/h 75% 0.0 mm 84 W/m2
15:44 13.1 °C 9.2 °C 1019.6 hPa NW 1.4 km/h 1.6 km/h 77% 0.0 mm 84 W/m2
15:49 13.1 °C 9.4 °C 1019.6 hPa NW 1.4 km/h 1.6 km/h 78% 0.0 mm 98 W/m2
15:54 12.9 °C 8.8 °C 1019.6 hPa NW 3.2 km/h 3.2 km/h 76% 0.0 mm 100 W/m2
15:59 12.9 °C 9 °C 1019.6 hPa Calm     77% 0.0 mm 97 W/m2
16:04 12.9 °C 9 °C 1019.6 hPa Calm   3.2 km/h 77% 0.0 mm 93 W/m2
16:09 12.9 °C 9 °C 1019.6 hPa West 3.2 km/h 4.8 km/h 77% 0.0 mm 95 W/m2
16:14 12.9 °C 9 °C 1019.6 hPa Calm   1.6 km/h 77% 0.0 mm 100 W/m2
16:19 12.9 °C 9.2 °C 1019.6 hPa Calm   4.8 km/h 78% 0.0 mm 84 W/m2
16:24 12.9 °C 9 °C 1019.6 hPa Calm   3.2 km/h 77% 0.0 mm 76 W/m2
16:29 12.9 °C 9.2 °C 1019.6 hPa West 1.4 km/h 1.6 km/h 78% 0.0 mm 72 W/m2
16:34 12.9 °C 9.3 °C 1019.6 hPa Calm   3.2 km/h 79% 0.0 mm 65 W/m2
16:39 12.9 °C 9.5 °C 1019.6 hPa Calm     80% 0.0 mm 62 W/m2
16:44 12.9 °C 9.5 °C 1019.6 hPa Calm     80% 0.0 mm 72 W/m2
16:49 12.9 °C 9.9 °C 1019.6 hPa Calm     82% 0.0 mm 69 W/m2
16:54 12.9 °C 9.9 °C 1019.6 hPa West 1.4 km/h 1.6 km/h 82% 0.0 mm 65 W/m2
16:59 12.9 °C 10.1 °C 1019.6 hPa Calm   1.6 km/h 83% 0.0 mm 62 W/m2
17:04 12.8 °C 10 °C 1019.6 hPa Calm     83% 0.0 mm 58 W/m2
17:09 12.8 °C 9.8 °C 1019.6 hPa Calm     82% 0.0 mm 47 W/m2
17:14 12.8 °C 9.8 °C 1019.3 hPa Calm     82% 0.0 mm 42 W/m2
17:19 12.7 °C 9.9 °C 1019.3 hPa Calm     83% 0.0 mm 39 W/m2
17:24 12.6 °C 9.8 °C 1019.3 hPa Calm     83% 0.0 mm 40 W/m2
17:29 12.6 °C 10 °C 1019.3 hPa Calm     84% 0.0 mm 39 W/m2
17:34 12.4 °C 9.8 °C 1019.3 hPa Calm   1.6 km/h 84% 0.0 mm 33 W/m2
17:39 12.3 °C 9.5 °C 1019.3 hPa Calm   1.6 km/h 83% 0.0 mm 32 W/m2
17:44 12.1 °C 9.5 °C 1019.3 hPa Calm     84% 0.0 mm 42 W/m2
17:49 11.9 °C 9.3 °C 1019.3 hPa Calm   1.6 km/h 84% 0.0 mm 30 W/m2
17:54 11.8 °C 9.2 °C 1019.3 hPa West 1.4 km/h 1.6 km/h 84% 0.0 mm 28 W/m2
17:59 11.6 °C 9 °C 1019.3 hPa Calm   3.2 km/h 84% 0.0 mm 28 W/m2
18:05 11.4 °C 8.8 °C 1019.3 hPa West 3.2 km/h   84% 0.0 mm 28 W/m2
18:10 11.2 °C 8.8 °C 1019.3 hPa West 1.4 km/h 3.2 km/h 85% 0.0 mm 18 W/m2
18:15 10.9 °C 8.5 °C 1019.3 hPa West 3.2 km/h 3.2 km/h 85% 0.0 mm 14 W/m2
18:20 10.8 °C 8.6 °C 1019.3 hPa West 1.4 km/h 3.2 km/h 86% 0.0 mm 16 W/m2
18:25 10.7 °C 8.5 °C 1019.3 hPa West 1.4 km/h 3.2 km/h 86% 0.0 mm 14 W/m2
18:30 10.6 °C 8.5 °C 1019.3 hPa Calm     87% 0.0 mm 11 W/m2
18:35 10.5 °C 8.4 °C 1019.3 hPa Calm   3.2 km/h 87% 0.0 mm 7 W/m2
18:40 10.3 °C 8.2 °C 1019.3 hPa Calm   1.6 km/h 87% 0.0 mm 0 W/m2
18:45 10.2 °C 8.1 °C 1019.3 hPa Calm     87% 0.0 mm 0 W/m2
18:50 10.1 °C 8.2 °C 1019.3 hPa Calm     88% 0.0 mm 0 W/m2
18:55 10 °C 8.1 °C 1019.3 hPa Calm     88% 0.0 mm 0 W/m2
19:00 9.9 °C 8.2 °C 1019.6 hPa Calm     89% 0.0 mm 0 W/m2
19:05 9.9 °C 8.2 °C 1019.6 hPa Calm   3.2 km/h 89% 0.0 mm 0 W/m2
19:10 10 °C 8.4 °C 1019.6 hPa West 1.4 km/h 6.4 km/h 90% 0.0 mm 0 W/m2
19:15 10.3 °C 8.7 °C 1019.6 hPa West 1.4 km/h 3.2 km/h 90% 0.0 mm 0 W/m2
19:20 10.4 °C 8.8 °C 1019.6 hPa West 4.7 km/h 6.4 km/h 90% 0.0 mm 0 W/m2
19:25 10.6 °C 8.9 °C 1019.6 hPa WNW 3.2 km/h 3.2 km/h 89% 0.0 mm 0 W/m2
19:30 10.7 °C 9 °C 1019.6 hPa West 3.2 km/h 4.8 km/h 89% 0.0 mm 0 W/m2
19:35 10.9 °C 9 °C 1020.0 hPa West 3.2 km/h 3.2 km/h 88% 0.0 mm 0 W/m2
19:40 10.9 °C 9 °C 1020.0 hPa West 3.2 km/h 4.8 km/h 88% 0.0 mm 0 W/m2
19:45 11 °C 9.1 °C 1020.0 hPa West 1.4 km/h 3.2 km/h 88% 0.0 mm 0 W/m2
19:50 11 °C 9.1 °C 1020.0 hPa West 3.2 km/h 4.8 km/h 88% 0.0 mm 0 W/m2
19:55 11 °C 9.1 °C 1020.0 hPa WSW 1.4 km/h 4.8 km/h 88% 0.0 mm 0 W/m2
20:00 10.9 °C 9 °C 1020.0 hPa WSW 3.2 km/h 4.8 km/h 88% 0.0 mm 0 W/m2
20:05 10.9 °C 9 °C 1020.0 hPa West 4.7 km/h 4.8 km/h 88% 0.0 mm 0 W/m2
20:10 10.9 °C 9 °C 1020.0 hPa West 1.4 km/h 3.2 km/h 88% 0.0 mm 0 W/m2
20:15 10.9 °C 9 °C 1020.0 hPa West 1.4 km/h 3.2 km/h 88% 0.0 mm 0 W/m2
20:20 10.8 °C 8.9 °C 1020.0 hPa West 1.4 km/h 3.2 km/h 88% 0.0 mm 0 W/m2
20:25 10.8 °C 8.9 °C 1020.0 hPa Calm   3.2 km/h 88% 0.0 mm 0 W/m2
20:30 10.8 °C 8.9 °C 1020.0 hPa Calm   1.6 km/h 88% 0.0 mm 0 W/m2
20:35 10.8 °C 8.9 °C 1020.0 hPa Calm     88% 0.0 mm 0 W/m2
20:40 10.7 °C 8.8 °C 1019.6 hPa West 3.2 km/h 3.2 km/h 88% 0.0 mm 0 W/m2
20:45 10.6 °C 8.7 °C 1019.6 hPa Calm   1.6 km/h 88% 0.0 mm 0 W/m2
20:50 10.6 °C 8.7 °C 1019.6 hPa Calm   1.6 km/h 88% 0.0 mm 0 W/m2
20:55 10.4 °C 8.5 °C 1019.6 hPa Calm   3.2 km/h 88% 0.0 mm 0 W/m2
21:00 10.2 °C 8.3 °C 1019.6 hPa Calm     88% 0.0 mm 0 W/m2
21:05 10.1 °C 8.2 °C 1019.6 hPa Calm   3.2 km/h 88% 0.0 mm 0 W/m2
21:10 9.8 °C 7.9 °C 1019.6 hPa Calm     88% 0.0 mm 0 W/m2
21:15 9.7 °C 8 °C 1019.6 hPa Calm     89% 0.0 mm 0 W/m2
21:20 9.5 °C 7.8 °C 1019.6 hPa Calm     89% 0.0 mm 0 W/m2
21:25 9.3 °C 7.7 °C 1019.6 hPa Calm     90% 0.0 mm 0 W/m2
21:30 9.2 °C 7.6 °C 1019.6 hPa Calm     90% 0.0 mm 0 W/m2
21:35 9.1 °C 7.5 °C 1019.6 hPa Calm     90% 0.0 mm 0 W/m2
21:40 9 °C 7.6 °C 1019.6 hPa Calm     91% 0.0 mm 0 W/m2
21:45 8.8 °C 7.4 °C 1019.6 hPa Calm     91% 0.0 mm 0 W/m2
21:50 8.8 °C 7.4 °C 1019.6 hPa Calm     91% 0.0 mm 0 W/m2
21:55 8.7 °C 7.5 °C 1019.6 hPa Calm     92% 0.0 mm 0 W/m2
22:00 8.7 °C 7.5 °C 1019.6 hPa Calm     92% 0.0 mm 0 W/m2
22:05 8.7 °C 7.5 °C 1019.6 hPa Calm     92% 0.0 mm 0 W/m2
22:10 8.6 °C 7.5 °C 1019.6 hPa Calm     93% 0.0 mm 0 W/m2
22:15 8.6 °C 7.5 °C 1019.6 hPa Calm     93% 0.0 mm 0 W/m2
22:20 8.5 °C 7.4 °C 1019.6 hPa Calm     93% 0.0 mm 0 W/m2
22:25 8.5 °C 7.4 °C 1019.6 hPa Calm     93% 0.0 mm 0 W/m2
22:30 8.4 °C 7.3 °C 1019.6 hPa Calm     93% 0.0 mm 0 W/m2
22:35 8.3 °C 7.2 °C 1019.6 hPa Calm     93% 0.0 mm 0 W/m2
22:40 8.2 °C 7.1 °C 1019.6 hPa Calm     93% 0.0 mm 0 W/m2
22:45 8.2 °C 7.1 °C 1019.6 hPa Calm     93% 0.0 mm 0 W/m2
22:50 8 °C 6.9 °C 1019.6 hPa Calm     93% 0.0 mm 0 W/m2
22:55 7.9 °C 6.8 °C 1019.6 hPa Calm     93% 0.0 mm 0 W/m2
23:01 7.8 °C 6.7 °C 1019.6 hPa Calm     93% 0.0 mm 0 W/m2
23:06 7.7 °C 6.6 °C 1019.6 hPa Calm     93% 0.0 mm 0 W/m2
23:11 7.6 °C 6.7 °C 1019.6 hPa Calm     94% 0.0 mm 0 W/m2
23:16 7.6 °C 6.5 °C 1019.6 hPa Calm     93% 0.0 mm 0 W/m2
23:21 7.5 °C 6.6 °C 1019.6 hPa Calm     94% 0.0 mm 0 W/m2
23:26 7.4 °C 6.5 °C 1019.6 hPa Calm     94% 0.0 mm 0 W/m2
23:31 7.5 °C 6.6 °C 1020.0 hPa Calm     94% 0.0 mm 0 W/m2
23:36 7.6 °C 6.7 °C 1019.6 hPa Calm     94% 0.0 mm 0 W/m2
23:41 7.6 °C 6.9 °C 1019.6 hPa Calm     95% 0.0 mm 0 W/m2
23:46 7.6 °C 6.9 °C 1019.6 hPa Calm     95% 0.0 mm 0 W/m2
23:51 7.7 °C 6.9 °C 1019.6 hPa Calm     95% 0.0 mm 0 W/m2
23:56 7.7 °C 6.9 °C 1019.6 hPa Calm     95% 0.0 mm 0 W/m2
Juneau County Weather
Compliments of Weather Underground - 4 mb